sensor_id;sensor_type;location;lat;lon;timestamp;temperature;humidity
21759;DHT22;11041;50.854;20.580;2022-11-11T00:02:07;4.50;99.90
21759;DHT22;11041;50.854;20.580;2022-11-11T00:04:34;4.50;99.90
21759;DHT22;11041;50.854;20.580;2022-11-11T00:07:01;4.50;99.90
21759;DHT22;11041;50.854;20.580;2022-11-11T00:09:28;4.50;99.90
21759;DHT22;11041;50.854;20.580;2022-11-11T00:11:54;4.40;99.90
21759;DHT22;11041;50.854;20.580;2022-11-11T00:14:21;4.40;99.90
21759;DHT22;11041;50.854;20.580;2022-11-11T00:16:48;4.40;99.90
21759;DHT22;11041;50.854;20.580;2022-11-11T00:19:35;4.30;99.90
21759;DHT22;11041;50.854;20.580;2022-11-11T00:22:23;4.30;99.90
21759;DHT22;11041;50.854;20.580;2022-11-11T00:25:11;4.20;99.90
21759;DHT22;11041;50.854;20.580;2022-11-11T00:27:42;4.30;99.90
21759;DHT22;11041;50.854;20.580;2022-11-11T00:30:09;4.30;99.90
21759;DHT22;11041;50.854;20.580;2022-11-11T00:32:35;4.30;99.90
21759;DHT22;11041;50.854;20.580;2022-11-11T00:35:02;4.20;99.90
21759;DHT22;11041;50.854;20.580;2022-11-11T00:37:47;4.30;99.90
21759;DHT22;11041;50.854;20.580;2022-11-11T00:40:14;4.30;99.90
21759;DHT22;11041;50.854;20.580;2022-11-11T00:42:42;4.40;99.90
21759;DHT22;11041;50.854;20.580;2022-11-11T00:45:10;4.40;99.90
21759;DHT22;11041;50.854;20.580;2022-11-11T00:47:37;4.40;99.90
21759;DHT22;11041;50.854;20.580;2022-11-11T00:50:27;4.40;99.90
21759;DHT22;11041;50.854;20.580;2022-11-11T00:53:16;4.50;99.90
21759;DHT22;11041;50.854;20.580;2022-11-11T00:55:44;4.50;99.90
21759;DHT22;11041;50.854;20.580;2022-11-11T00:58:10;4.60;99.90
21759;DHT22;11041;50.854;20.580;2022-11-11T01:00:36;4.60;99.90
21759;DHT22;11041;50.854;20.580;2022-11-11T01:03:04;4.70;99.90
21759;DHT22;11041;50.854;20.580;2022-11-11T01:05:30;4.70;99.90
21759;DHT22;11041;50.854;20.580;2022-11-11T01:07:57;4.70;99.90
21759;DHT22;11041;50.854;20.580;2022-11-11T01:10:23;4.80;99.90
21759;DHT22;11041;50.854;20.580;2022-11-11T01:13:34;4.80;99.90
21759;DHT22;11041;50.854;20.580;2022-11-11T01:16:04;4.80;99.90
21759;DHT22;11041;50.854;20.580;2022-11-11T01:18:33;4.90;99.90
21759;DHT22;11041;50.854;20.580;2022-11-11T01:21:04;4.90;99.90
21759;DHT22;11041;50.854;20.580;2022-11-11T01:23:38;4.90;99.90
21759;DHT22;11041;50.854;20.580;2022-11-11T01:26:12;4.80;99.90
21759;DHT22;11041;50.854;20.580;2022-11-11T01:28:48;4.80;99.90
21759;DHT22;11041;50.854;20.580;2022-11-11T01:31:20;4.90;99.90
21759;DHT22;11041;50.854;20.580;2022-11-11T01:33:49;4.90;99.90
21759;DHT22;11041;50.854;20.580;2022-11-11T01:36:21;4.90;99.90
21759;DHT22;11041;50.854;20.580;2022-11-11T01:38:52;4.90;99.90
21759;DHT22;11041;50.854;20.580;2022-11-11T01:41:23;4.90;99.90
21759;DHT22;11041;50.854;20.580;2022-11-11T01:44:00;5.00;99.90
21759;DHT22;11041;50.854;20.580;2022-11-11T01:46:47;5.00;99.90
21759;DHT22;11041;50.854;20.580;2022-11-11T01:52:30;5.10;99.90
21759;DHT22;11041;50.854;20.580;2022-11-11T01:55:14;5.20;99.90
21759;DHT22;11041;50.854;20.580;2022-11-11T01:57:49;5.20;99.90
21759;DHT22;11041;50.854;20.580;2022-11-11T02:00:28;5.20;99.90
21759;DHT22;11041;50.854;20.580;2022-11-11T02:03:06;5.20;99.90
21759;DHT22;11041;50.854;20.580;2022-11-11T02:05:36;5.30;99.90
21759;DHT22;11041;50.854;20.580;2022-11-11T02:08:17;5.30;99.90
21759;DHT22;11041;50.854;20.580;2022-11-11T02:13:31;5.40;99.90
21759;DHT22;11041;50.854;20.580;2022-11-11T02:16:21;5.50;99.90
21759;DHT22;11041;50.854;20.580;2022-11-11T02:18:48;5.50;99.90
21759;DHT22;11041;50.854;20.580;2022-11-11T02:21:24;5.50;99.90
21759;DHT22;11041;50.854;20.580;2022-11-11T02:24:05;5.60;99.90
21759;DHT22;11041;50.854;20.580;2022-11-11T02:26:35;5.60;99.90
21759;DHT22;11041;50.854;20.580;2022-11-11T02:29:09;5.60;99.90
21759;DHT22;11041;50.854;20.580;2022-11-11T02:31:38;5.60;99.90
21759;DHT22;11041;50.854;20.580;2022-11-11T02:34:06;5.60;99.90
21759;DHT22;11041;50.854;20.580;2022-11-11T02:36:33;5.70;99.90
21759;DHT22;11041;50.854;20.580;2022-11-11T02:39:00;5.70;99.90
21759;DHT22;11041;50.854;20.580;2022-11-11T02:41:27;5.80;99.90
21759;DHT22;11041;50.854;20.580;2022-11-11T02:44:12;5.80;99.90
21759;DHT22;11041;50.854;20.580;2022-11-11T02:46:38;5.90;99.90
21759;DHT22;11041;50.854;20.580;2022-11-11T02:49:05;5.90;99.90
21759;DHT22;11041;50.854;20.580;2022-11-11T02:51:31;5.90;99.90
21759;DHT22;11041;50.854;20.580;2022-11-11T02:53:58;5.90;99.90
21759;DHT22;11041;50.854;20.580;2022-11-11T02:56:28;5.90;99.90
21759;DHT22;11041;50.854;20.580;2022-11-11T02:59:13;5.90;99.90
21759;DHT22;11041;50.854;20.580;2022-11-11T03:01:39;6.00;99.90
21759;DHT22;11041;50.854;20.580;2022-11-11T03:04:06;6.00;99.90
21759;DHT22;11041;50.854;20.580;2022-11-11T03:06:33;6.10;99.90
21759;DHT22;11041;50.854;20.580;2022-11-11T03:08:59;6.10;99.90
21759;DHT22;11041;50.854;20.580;2022-11-11T03:11:25;6.10;99.90
21759;DHT22;11041;50.854;20.580;2022-11-11T03:13:59;6.10;99.90
21759;DHT22;11041;50.854;20.580;2022-11-11T03:16:26;6.20;99.90
21759;DHT22;11041;50.854;20.580;2022-11-11T03:19:11;6.10;99.90
21759;DHT22;11041;50.854;20.580;2022-11-11T03:21:37;6.20;99.90
21759;DHT22;11041;50.854;20.580;2022-11-11T03:24:05;6.20;99.90
21759;DHT22;11041;50.854;20.580;2022-11-11T03:26:31;6.20;99.90
21759;DHT22;11041;50.854;20.580;2022-11-11T03:28:58;6.20;99.90
21759;DHT22;11041;50.854;20.580;2022-11-11T03:31:24;6.20;99.90
21759;DHT22;11041;50.854;20.580;2022-11-11T03:33:51;6.30;99.90
21759;DHT22;11041;50.854;20.580;2022-11-11T03:36:17;6.30;99.90
21759;DHT22;11041;50.854;20.580;2022-11-11T03:38:44;6.30;99.90
21759;DHT22;11041;50.854;20.580;2022-11-11T03:41:10;6.30;99.90
21759;DHT22;11041;50.854;20.580;2022-11-11T03:43:36;6.30;99.90
21759;DHT22;11041;50.854;20.580;2022-11-11T03:46:04;6.30;99.90
21759;DHT22;11041;50.854;20.580;2022-11-11T03:48:32;6.40;99.90
21759;DHT22;11041;50.854;20.580;2022-11-11T03:50:59;6.40;99.90
21759;DHT22;11041;50.854;20.580;2022-11-11T03:53:26;6.40;99.90
21759;DHT22;11041;50.854;20.580;2022-11-11T03:55:52;6.50;99.90
21759;DHT22;11041;50.854;20.580;2022-11-11T03:58:19;6.40;99.90
21759;DHT22;11041;50.854;20.580;2022-11-11T04:00:45;6.50;99.90
21759;DHT22;11041;50.854;20.580;2022-11-11T04:03:17;6.50;99.90
21759;DHT22;11041;50.854;20.580;2022-11-11T04:06:04;6.50;99.90
21759;DHT22;11041;50.854;20.580;2022-11-11T04:08:49;6.60;99.90
21759;DHT22;11041;50.854;20.580;2022-11-11T04:11:36;6.60;99.90
21759;DHT22;11041;50.854;20.580;2022-11-11T04:14:09;6.60;99.90
21759;DHT22;11041;50.854;20.580;2022-11-11T04:16:56;6.60;99.90
21759;DHT22;11041;50.854;20.580;2022-11-11T04:19:24;6.60;99.90
21759;DHT22;11041;50.854;20.580;2022-11-11T04:22:09;6.70;99.90
21759;DHT22;11041;50.854;20.580;2022-11-11T04:24:36;6.70;99.90
21759;DHT22;11041;50.854;20.580;2022-11-11T04:27:21;6.60;99.90
21759;DHT22;11041;50.854;20.580;2022-11-11T04:29:47;6.60;99.90
21759;DHT22;11041;50.854;20.580;2022-11-11T04:32:17;6.60;99.90
21759;DHT22;11041;50.854;20.580;2022-11-11T04:35:07;6.60;99.90
21759;DHT22;11041;50.854;20.580;2022-11-11T04:37:43;6.60;99.90
21759;DHT22;11041;50.854;20.580;2022-11-11T04:40:12;6.60;99.90
21759;DHT22;11041;50.854;20.580;2022-11-11T04:42:57;6.60;99.90
21759;DHT22;11041;50.854;20.580;2022-11-11T04:45:23;6.50;99.90
21759;DHT22;11041;50.854;20.580;2022-11-11T04:48:04;6.50;99.90
21759;DHT22;11041;50.854;20.580;2022-11-11T04:50:35;6.50;99.90
21759;DHT22;11041;50.854;20.580;2022-11-11T04:53:05;6.40;99.90
21759;DHT22;11041;50.854;20.580;2022-11-11T04:55:36;6.40;99.90
21759;DHT22;11041;50.854;20.580;2022-11-11T04:58:27;6.40;99.90
21759;DHT22;11041;50.854;20.580;2022-11-11T05:00:58;6.40;99.90
21759;DHT22;11041;50.854;20.580;2022-11-11T05:03:25;6.40;99.90
21759;DHT22;11041;50.854;20.580;2022-11-11T05:06:00;6.40;99.90
21759;DHT22;11041;50.854;20.580;2022-11-11T05:08:46;6.40;99.90
21759;DHT22;11041;50.854;20.580;2022-11-11T05:11:30;6.40;99.90
21759;DHT22;11041;50.854;20.580;2022-11-11T05:14:04;6.40;99.90
21759;DHT22;11041;50.854;20.580;2022-11-11T05:16:53;6.40;99.90
21759;DHT22;11041;50.854;20.580;2022-11-11T05:19:39;6.50;99.90
21759;DHT22;11041;50.854;20.580;2022-11-11T05:25:03;6.50;99.90
21759;DHT22;11041;50.854;20.580;2022-11-11T05:27:49;6.50;99.90
21759;DHT22;11041;50.854;20.580;2022-11-11T05:30:16;6.50;99.90
21759;DHT22;11041;50.854;20.580;2022-11-11T05:32:43;6.50;99.90
21759;DHT22;11041;50.854;20.580;2022-11-11T05:35:11;6.50;99.90
21759;DHT22;11041;50.854;20.580;2022-11-11T05:37:38;6.50;99.90
21759;DHT22;11041;50.854;20.580;2022-11-11T05:40:07;6.40;99.90
21759;DHT22;11041;50.854;20.580;2022-11-11T05:42:40;6.40;99.90
21759;DHT22;11041;50.854;20.580;2022-11-11T05:45:08;6.50;99.90
21759;DHT22;11041;50.854;20.580;2022-11-11T05:47:35;6.50;99.90
21759;DHT22;11041;50.854;20.580;2022-11-11T05:50:01;6.50;99.90
21759;DHT22;11041;50.854;20.580;2022-11-11T05:52:28;6.50;99.90
21759;DHT22;11041;50.854;20.580;2022-11-11T05:54:55;6.50;99.90
21759;DHT22;11041;50.854;20.580;2022-11-11T05:57:21;6.50;99.90
21759;DHT22;11041;50.854;20.580;2022-11-11T05:59:48;6.50;99.90
21759;DHT22;11041;50.854;20.580;2022-11-11T06:02:14;6.50;99.90
21759;DHT22;11041;50.854;20.580;2022-11-11T06:04:42;6.50;99.90
21759;DHT22;11041;50.854;20.580;2022-11-11T06:07:08;6.50;99.90
21759;DHT22;11041;50.854;20.580;2022-11-11T06:09:34;6.50;99.90
21759;DHT22;11041;50.854;20.580;2022-11-11T06:12:01;6.60;99.90
21759;DHT22;11041;50.854;20.580;2022-11-11T06:14:27;6.60;99.90
21759;DHT22;11041;50.854;20.580;2022-11-11T06:16:54;6.60;99.90
21759;DHT22;11041;50.854;20.580;2022-11-11T06:19:20;6.60;99.90
21759;DHT22;11041;50.854;20.580;2022-11-11T06:21:47;6.60;99.90
21759;DHT22;11041;50.854;20.580;2022-11-11T06:24:27;6.60;99.90
21759;DHT22;11041;50.854;20.580;2022-11-11T06:26:54;6.60;99.90
21759;DHT22;11041;50.854;20.580;2022-11-11T06:29:21;6.60;99.90
21759;DHT22;11041;50.854;20.580;2022-11-11T06:31:48;6.60;99.90
21759;DHT22;11041;50.854;20.580;2022-11-11T06:34:14;6.70;99.90
21759;DHT22;11041;50.854;20.580;2022-11-11T06:36:41;6.70;99.90
21759;DHT22;11041;50.854;20.580;2022-11-11T06:39:08;6.70;99.90
21759;DHT22;11041;50.854;20.580;2022-11-11T06:41:34;6.70;99.90
21759;DHT22;11041;50.854;20.580;2022-11-11T06:44:01;6.70;99.90
21759;DHT22;11041;50.854;20.580;2022-11-11T06:46:27;6.70;99.90
21759;DHT22;11041;50.854;20.580;2022-11-11T06:48:54;6.70;99.90
21759;DHT22;11041;50.854;20.580;2022-11-11T06:51:22;6.80;99.90
21759;DHT22;11041;50.854;20.580;2022-11-11T06:53:48;6.80;99.90
21759;DHT22;11041;50.854;20.580;2022-11-11T06:56:15;6.80;99.90
21759;DHT22;11041;50.854;20.580;2022-11-11T06:58:42;6.90;99.90
21759;DHT22;11041;50.854;20.580;2022-11-11T07:01:09;6.90;99.90
21759;DHT22;11041;50.854;20.580;2022-11-11T07:03:36;7.00;99.90
21759;DHT22;11041;50.854;20.580;2022-11-11T07:06:03;7.00;99.90
21759;DHT22;11041;50.854;20.580;2022-11-11T07:08:32;7.00;99.90
21759;DHT22;11041;50.854;20.580;2022-11-11T07:10:59;7.00;99.90
21759;DHT22;11041;50.854;20.580;2022-11-11T07:13:25;7.10;99.90
21759;DHT22;11041;50.854;20.580;2022-11-11T07:15:52;7.20;99.90
21759;DHT22;11041;50.854;20.580;2022-11-11T07:18:18;7.30;99.90
21759;DHT22;11041;50.854;20.580;2022-11-11T07:20:45;7.40;99.90
21759;DHT22;11041;50.854;20.580;2022-11-11T07:23:12;7.50;99.90
21759;DHT22;11041;50.854;20.580;2022-11-11T07:25:38;7.60;99.90
21759;DHT22;11041;50.854;20.580;2022-11-11T07:28:05;7.70;99.90
21759;DHT22;11041;50.854;20.580;2022-11-11T07:30:31;7.90;99.90
21759;DHT22;11041;50.854;20.580;2022-11-11T07:32:58;7.90;99.90
21759;DHT22;11041;50.854;20.580;2022-11-11T07:35:24;8.00;99.90
21759;DHT22;11041;50.854;20.580;2022-11-11T07:37:51;8.10;99.90
21759;DHT22;11041;50.854;20.580;2022-11-11T07:40:18;8.10;99.90
21759;DHT22;11041;50.854;20.580;2022-11-11T07:42:45;8.20;99.90
21759;DHT22;11041;50.854;20.580;2022-11-11T07:45:13;8.20;99.90
21759;DHT22;11041;50.854;20.580;2022-11-11T07:47:42;8.30;99.90
21759;DHT22;11041;50.854;20.580;2022-11-11T07:50:10;8.30;99.90
21759;DHT22;11041;50.854;20.580;2022-11-11T07:52:38;8.30;99.90
21759;DHT22;11041;50.854;20.580;2022-11-11T07:55:05;8.40;99.90
21759;DHT22;11041;50.854;20.580;2022-11-11T07:57:33;8.40;99.90
21759;DHT22;11041;50.854;20.580;2022-11-11T08:00:00;8.40;99.90
21759;DHT22;11041;50.854;20.580;2022-11-11T08:02:27;8.50;99.90
21759;DHT22;11041;50.854;20.580;2022-11-11T08:04:53;8.50;99.90
21759;DHT22;11041;50.854;20.580;2022-11-11T08:07:20;8.50;99.90
21759;DHT22;11041;50.854;20.580;2022-11-11T08:09:47;8.50;99.90
21759;DHT22;11041;50.854;20.580;2022-11-11T08:12:13;8.60;99.90
21759;DHT22;11041;50.854;20.580;2022-11-11T08:14:58;8.60;99.90
21759;DHT22;11041;50.854;20.580;2022-11-11T08:17:25;8.60;99.90
21759;DHT22;11041;50.854;20.580;2022-11-11T08:19:51;8.70;99.90
21759;DHT22;11041;50.854;20.580;2022-11-11T08:22:18;8.80;99.90
21759;DHT22;11041;50.854;20.580;2022-11-11T08:24:44;8.90;99.90
21759;DHT22;11041;50.854;20.580;2022-11-11T08:27:11;9.00;99.90
21759;DHT22;11041;50.854;20.580;2022-11-11T08:29:38;9.20;99.90
21759;DHT22;11041;50.854;20.580;2022-11-11T08:32:04;9.30;99.90
21759;DHT22;11041;50.854;20.580;2022-11-11T08:34:30;9.40;99.90
21759;DHT22;11041;50.854;20.580;2022-11-11T08:36:57;9.50;99.90
21759;DHT22;11041;50.854;20.580;2022-11-11T08:39:24;9.60;99.90
21759;DHT22;11041;50.854;20.580;2022-11-11T08:41:50;9.60;99.90
21759;DHT22;11041;50.854;20.580;2022-11-11T08:44:17;9.60;99.90
21759;DHT22;11041;50.854;20.580;2022-11-11T08:46:43;9.70;99.90
21759;DHT22;11041;50.854;20.580;2022-11-11T08:49:10;9.70;99.90
21759;DHT22;11041;50.854;20.580;2022-11-11T08:51:38;9.70;99.90
21759;DHT22;11041;50.854;20.580;2022-11-11T08:54:04;9.80;99.90
21759;DHT22;11041;50.854;20.580;2022-11-11T08:56:31;9.80;99.90
21759;DHT22;11041;50.854;20.580;2022-11-11T08:58:57;9.80;99.90
21759;DHT22;11041;50.854;20.580;2022-11-11T09:01:24;9.80;99.90
21759;DHT22;11041;50.854;20.580;2022-11-11T09:03:50;9.90;99.90
21759;DHT22;11041;50.854;20.580;2022-11-11T09:06:17;9.90;99.90
21759;DHT22;11041;50.854;20.580;2022-11-11T09:08:44;10.00;99.90
21759;DHT22;11041;50.854;20.580;2022-11-11T09:11:11;10.00;99.90
21759;DHT22;11041;50.854;20.580;2022-11-11T09:13:38;10.00;99.90
21759;DHT22;11041;50.854;20.580;2022-11-11T09:16:06;10.00;99.90
21759;DHT22;11041;50.854;20.580;2022-11-11T09:18:33;10.00;99.90
21759;DHT22;11041;50.854;20.580;2022-11-11T09:21:00;10.00;99.90
21759;DHT22;11041;50.854;20.580;2022-11-11T09:23:26;10.00;99.90
21759;DHT22;11041;50.854;20.580;2022-11-11T09:25:53;10.10;99.90
21759;DHT22;11041;50.854;20.580;2022-11-11T09:28:19;10.20;99.90
21759;DHT22;11041;50.854;20.580;2022-11-11T09:30:46;10.30;99.90
21759;DHT22;11041;50.854;20.580;2022-11-11T09:33:12;10.40;99.90
21759;DHT22;11041;50.854;20.580;2022-11-11T09:35:41;10.40;99.90
21759;DHT22;11041;50.854;20.580;2022-11-11T09:38:08;10.40;99.90
21759;DHT22;11041;50.854;20.580;2022-11-11T09:41:04;10.50;99.90
21759;DHT22;11041;50.854;20.580;2022-11-11T09:55:51;11.10;99.90
21759;DHT22;11041;50.854;20.580;2022-11-11T09:58:28;11.10;99.90
21759;DHT22;11041;50.854;20.580;2022-11-11T10:01:13;11.20;99.90
21759;DHT22;11041;50.854;20.580;2022-11-11T10:04:03;11.20;99.90
21759;DHT22;11041;50.854;20.580;2022-11-11T10:06:32;11.30;99.90
21759;DHT22;11041;50.854;20.580;2022-11-11T10:12:09;11.30;99.90
21759;DHT22;11041;50.854;20.580;2022-11-11T10:14:39;11.50;99.90
21759;DHT22;11041;50.854;20.580;2022-11-11T10:22:48;11.90;99.90
21759;DHT22;11041;50.854;20.580;2022-11-11T10:25:26;11.90;99.90
21759;DHT22;11041;50.854;20.580;2022-11-11T10:27:57;12.00;99.90
21759;DHT22;11041;50.854;20.580;2022-11-11T10:30:28;12.00;99.90
21759;DHT22;11041;50.854;20.580;2022-11-11T10:33:01;12.00;99.90
21759;DHT22;11041;50.854;20.580;2022-11-11T10:35:32;12.10;99.90
21759;DHT22;11041;50.854;20.580;2022-11-11T10:41:10;12.30;99.90
21759;DHT22;11041;50.854;20.580;2022-11-11T10:43:39;12.50;99.90
21759;DHT22;11041;50.854;20.580;2022-11-11T10:46:35;12.50;99.90
21759;DHT22;11041;50.854;20.580;2022-11-11T10:49:18;12.60;99.90
21759;DHT22;11041;50.854;20.580;2022-11-11T10:52:15;12.60;99.90
21759;DHT22;11041;50.854;20.580;2022-11-11T10:55:08;12.60;99.90
21759;DHT22;11041;50.854;20.580;2022-11-11T10:58:40;12.70;99.90
21759;DHT22;11041;50.854;20.580;2022-11-11T11:01:05;12.60;99.90
21759;DHT22;11041;50.854;20.580;2022-11-11T11:03:44;12.60;99.90
21759;DHT22;11041;50.854;20.580;2022-11-11T11:06:21;12.60;99.90
21759;DHT22;11041;50.854;20.580;2022-11-11T11:09:25;12.60;99.90
21759;DHT22;11041;50.854;20.580;2022-11-11T11:12:09;12.60;99.90
21759;DHT22;11041;50.854;20.580;2022-11-11T11:14:52;12.60;99.90
21759;DHT22;11041;50.854;20.580;2022-11-11T11:17:26;12.60;99.90
21759;DHT22;11041;50.854;20.580;2022-11-11T11:20:14;12.60;99.90
21759;DHT22;11041;50.854;20.580;2022-11-11T11:22:50;12.50;99.90
21759;DHT22;11041;50.854;20.580;2022-11-11T11:25:19;12.50;99.90
21759;DHT22;11041;50.854;20.580;2022-11-11T11:27:51;12.60;99.90
21759;DHT22;11041;50.854;20.580;2022-11-11T11:30:29;12.60;99.90
21759;DHT22;11041;50.854;20.580;2022-11-11T11:33:03;12.60;99.90
21759;DHT22;11041;50.854;20.580;2022-11-11T11:35:37;12.50;99.90
21759;DHT22;11041;50.854;20.580;2022-11-11T11:38:08;12.60;99.90
21759;DHT22;11041;50.854;20.580;2022-11-11T11:40:55;12.50;99.90
21759;DHT22;11041;50.854;20.580;2022-11-11T11:46:04;12.50;99.90
21759;DHT22;11041;50.854;20.580;2022-11-11T11:49:03;12.50;99.90
21759;DHT22;11041;50.854;20.580;2022-11-11T11:55:27;12.40;99.90
21759;DHT22;11041;50.854;20.580;2022-11-11T12:00:27;12.40;99.90
21759;DHT22;11041;50.854;20.580;2022-11-11T12:03:38;12.40;99.90
21759;DHT22;11041;50.854;20.580;2022-11-11T12:06:36;12.30;99.90
21759;DHT22;11041;50.854;20.580;2022-11-11T12:12:22;12.30;99.90
21759;DHT22;11041;50.854;20.580;2022-11-11T12:30:17;12.20;99.90
21759;DHT22;11041;50.854;20.580;2022-11-11T12:36:43;12.20;99.90
21759;DHT22;11041;50.854;20.580;2022-11-11T12:39:33;12.20;99.90
21759;DHT22;11041;50.854;20.580;2022-11-11T12:42:41;12.30;99.90
21759;DHT22;11041;50.854;20.580;2022-11-11T12:45:18;12.30;99.90
21759;DHT22;11041;50.854;20.580;2022-11-11T12:56:37;12.20;99.90
21759;DHT22;11041;50.854;20.580;2022-11-11T13:02:53;12.20;99.90
21759;DHT22;11041;50.854;20.580;2022-11-11T13:08:29;12.10;99.90
21759;DHT22;11041;50.854;20.580;2022-11-11T13:11:36;12.10;99.90
21759;DHT22;11041;50.854;20.580;2022-11-11T13:17:24;12.00;99.90
21759;DHT22;11041;50.854;20.580;2022-11-11T13:19:57;12.10;99.90
21759;DHT22;11041;50.854;20.580;2022-11-11T13:22:31;12.10;99.90
21759;DHT22;11041;50.854;20.580;2022-11-11T13:25:02;12.10;99.90
21759;DHT22;11041;50.854;20.580;2022-11-11T13:28:12;12.10;99.90
21759;DHT22;11041;50.854;20.580;2022-11-11T13:31:11;12.10;99.90
21759;DHT22;11041;50.854;20.580;2022-11-11T13:33:45;12.00;99.90
21759;DHT22;11041;50.854;20.580;2022-11-11T13:36:18;12.00;99.90
21759;DHT22;11041;50.854;20.580;2022-11-11T13:38:47;12.00;99.90
21759;DHT22;11041;50.854;20.580;2022-11-11T13:41:28;12.00;99.90
21759;DHT22;11041;50.854;20.580;2022-11-11T13:44:00;11.90;99.90
21759;DHT22;11041;50.854;20.580;2022-11-11T13:46:48;11.90;99.90
21759;DHT22;11041;50.854;20.580;2022-11-11T13:50:11;11.90;99.90
21759;DHT22;11041;50.854;20.580;2022-11-11T13:52:51;11.90;99.90
21759;DHT22;11041;50.854;20.580;2022-11-11T13:55:35;11.80;99.90
21759;DHT22;11041;50.854;20.580;2022-11-11T13:58:06;11.80;99.90
21759;DHT22;11041;50.854;20.580;2022-11-11T14:00:58;11.70;99.90
21759;DHT22;11041;50.854;20.580;2022-11-11T14:03:31;11.80;99.90
21759;DHT22;11041;50.854;20.580;2022-11-11T14:11:34;11.60;99.90
21759;DHT22;11041;50.854;20.580;2022-11-11T14:17:20;11.60;99.90
21759;DHT22;11041;50.854;20.580;2022-11-11T14:19:48;11.50;99.90
21759;DHT22;11041;50.854;20.580;2022-11-11T14:22:31;11.40;99.90
21759;DHT22;11041;50.854;20.580;2022-11-11T14:25:19;11.50;99.90
21759;DHT22;11041;50.854;20.580;2022-11-11T14:27:49;11.40;99.90
21759;DHT22;11041;50.854;20.580;2022-11-11T14:30:39;11.40;99.90
21759;DHT22;11041;50.854;20.580;2022-11-11T14:36:19;11.40;99.90
21759;DHT22;11041;50.854;20.580;2022-11-11T14:39:11;11.30;99.90
21759;DHT22;11041;50.854;20.580;2022-11-11T14:41:58;11.20;99.90
21759;DHT22;11041;50.854;20.580;2022-11-11T14:49:47;11.20;99.90
21759;DHT22;11041;50.854;20.580;2022-11-11T14:55:22;11.10;99.90
21759;DHT22;11041;50.854;20.580;2022-11-11T14:57:58;11.10;99.90
21759;DHT22;11041;50.854;20.580;2022-11-11T15:03:45;11.00;99.90
21759;DHT22;11041;50.854;20.580;2022-11-11T15:09:30;11.00;99.90
21759;DHT22;11041;50.854;20.580;2022-11-11T15:17:55;10.90;99.90
21759;DHT22;11041;50.854;20.580;2022-11-11T15:20:51;10.90;99.90
21759;DHT22;11041;50.854;20.580;2022-11-11T15:32:32;11.00;99.90
21759;DHT22;11041;50.854;20.580;2022-11-11T15:35:18;10.90;99.90
21759;DHT22;11041;50.854;20.580;2022-11-11T15:37:57;10.90;99.90
21759;DHT22;11041;50.854;20.580;2022-11-11T15:40:53;10.90;99.90
21759;DHT22;11041;50.854;20.580;2022-11-11T15:43:28;10.90;99.90
21759;DHT22;11041;50.854;20.580;2022-11-11T15:46:00;10.80;99.90
21759;DHT22;11041;50.854;20.580;2022-11-11T15:48:33;10.90;99.90
21759;DHT22;11041;50.854;20.580;2022-11-11T15:51:26;10.80;99.90
21759;DHT22;11041;50.854;20.580;2022-11-11T15:56:41;10.80;99.90
21759;DHT22;11041;50.854;20.580;2022-11-11T15:59:21;10.80;99.90
21759;DHT22;11041;50.854;20.580;2022-11-11T16:01:53;10.80;99.90
21759;DHT22;11041;50.854;20.580;2022-11-11T16:04:22;10.80;99.90
21759;DHT22;11041;50.854;20.580;2022-11-11T16:06:50;10.70;99.90
21759;DHT22;11041;50.854;20.580;2022-11-11T16:09:25;10.80;99.90
21759;DHT22;11041;50.854;20.580;2022-11-11T16:11:56;10.80;99.90
21759;DHT22;11041;50.854;20.580;2022-11-11T16:14:31;10.70;99.90
21759;DHT22;11041;50.854;20.580;2022-11-11T16:17:03;10.70;99.90
21759;DHT22;11041;50.854;20.580;2022-11-11T16:19:36;10.70;99.90
21759;DHT22;11041;50.854;20.580;2022-11-11T16:22:18;10.70;99.90
21759;DHT22;11041;50.854;20.580;2022-11-11T16:24:57;10.70;99.90
21759;DHT22;11041;50.854;20.580;2022-11-11T16:27:29;10.60;99.90
21759;DHT22;11041;50.854;20.580;2022-11-11T16:30:35;10.60;99.90
21759;DHT22;11041;50.854;20.580;2022-11-11T16:33:03;10.60;99.90
21759;DHT22;11041;50.854;20.580;2022-11-11T16:35:39;10.60;99.90
21759;DHT22;11041;50.854;20.580;2022-11-11T16:38:07;10.60;99.90
21759;DHT22;11041;50.854;20.580;2022-11-11T16:40:41;10.60;99.90
21759;DHT22;11041;50.854;20.580;2022-11-11T16:43:31;10.60;99.90
21759;DHT22;11041;50.854;20.580;2022-11-11T16:49:27;10.60;99.90
21759;DHT22;11041;50.854;20.580;2022-11-11T16:51:55;10.60;99.90
21759;DHT22;11041;50.854;20.580;2022-11-11T16:54:37;10.60;99.90
21759;DHT22;11041;50.854;20.580;2022-11-11T16:57:29;10.60;99.90
21759;DHT22;11041;50.854;20.580;2022-11-11T17:00:02;10.60;99.90
21759;DHT22;11041;50.854;20.580;2022-11-11T17:02:30;10.60;99.90
21759;DHT22;11041;50.854;20.580;2022-11-11T17:04:57;10.60;99.90
21759;DHT22;11041;50.854;20.580;2022-11-11T17:07:41;10.60;99.90
21759;DHT22;11041;50.854;20.580;2022-11-11T17:10:09;10.50;99.90
21759;DHT22;11041;50.854;20.580;2022-11-11T17:12:38;10.50;99.90
21759;DHT22;11041;50.854;20.580;2022-11-11T17:15:07;10.50;99.90
21759;DHT22;11041;50.854;20.580;2022-11-11T17:17:36;10.50;99.90
21759;DHT22;11041;50.854;20.580;2022-11-11T17:20:22;10.50;99.90
21759;DHT22;11041;50.854;20.580;2022-11-11T17:22:51;10.50;99.90
21759;DHT22;11041;50.854;20.580;2022-11-11T17:25:19;10.50;99.90
21759;DHT22;11041;50.854;20.580;2022-11-11T17:27:45;10.40;99.90
21759;DHT22;11041;50.854;20.580;2022-11-11T17:30:13;10.50;99.90
21759;DHT22;11041;50.854;20.580;2022-11-11T17:32:40;10.40;99.90
21759;DHT22;11041;50.854;20.580;2022-11-11T17:35:07;10.40;99.90
21759;DHT22;11041;50.854;20.580;2022-11-11T17:37:35;10.40;99.90
21759;DHT22;11041;50.854;20.580;2022-11-11T17:40:08;10.40;99.90
21759;DHT22;11041;50.854;20.580;2022-11-11T17:42:36;10.30;99.90
21759;DHT22;11041;50.854;20.580;2022-11-11T17:45:03;10.30;99.90
21759;DHT22;11041;50.854;20.580;2022-11-11T17:47:30;10.30;99.90
21759;DHT22;11041;50.854;20.580;2022-11-11T17:49:57;10.30;99.90
21759;DHT22;11041;50.854;20.580;2022-11-11T17:52:25;10.30;99.90
21759;DHT22;11041;50.854;20.580;2022-11-11T17:54:51;10.30;99.90
21759;DHT22;11041;50.854;20.580;2022-11-11T17:57:18;10.20;99.90
21759;DHT22;11041;50.854;20.580;2022-11-11T17:59:45;10.20;99.90
21759;DHT22;11041;50.854;20.580;2022-11-11T18:02:12;10.20;99.90
21759;DHT22;11041;50.854;20.580;2022-11-11T18:04:40;10.20;99.90
21759;DHT22;11041;50.854;20.580;2022-11-11T18:07:07;10.10;99.90
21759;DHT22;11041;50.854;20.580;2022-11-11T18:09:34;10.10;99.90
21759;DHT22;11041;50.854;20.580;2022-11-11T18:12:00;10.10;99.90
21759;DHT22;11041;50.854;20.580;2022-11-11T18:14:27;10.10;99.90